Time;durP1;ratioP1;P1;durP2;ratioP2;P2;SDS_P1;SDS_P2;PMS_P1;PMS_P2;Temp;Humidity;BMP_temperature;BMP_pressure;BME280_temperature;BME280_humidity;BME280_pressure;Samples;Min_cycle;Max_cycle;Signal;HPM_P1;HPM_P2
2022/01/21 00:01:06;;;;;;;8.13;1.85;;;;;;;;;;5076520;28;20945;-89
2022/01/21 00:03:32;;;;;;;11.52;2.13;;;;;;;;;;5077979;28;20024;-80
2022/01/21 00:05:57;;;;;;;8.93;2.53;;;;;;;;;;5076174;28;20032;-80
2022/01/21 00:08:22;;;;;;;10.32;2.83;;;;;;;;;;5085741;28;20439;-79
2022/01/21 00:10:48;;;;;;;7.70;1.80;;;;;;;;;;5075943;28;20494;-86
2022/01/21 00:13:20;;;;;;;7.47;1.55;;;;;;;;;;5080953;28;20060;-88
2022/01/21 00:15:45;;;;;;;9.00;2.25;;;;;;;;;;5076271;28;20028;-79
2022/01/21 00:18:12;;;;;;;8.73;2.22;;;;;;;;;;5076510;28;20032;-86
2022/01/21 00:31:33;;;;;;;7.85;2.10;;;;;;;;;;5079894;28;20086;-80
2022/01/21 00:33:58;;;;;;;8.07;2.30;;;;;;;;;;5077811;28;20044;-88
2022/01/21 00:36:24;;;;;;;6.97;2.15;;;;;;;;;;5077777;28;20039;-80
2022/01/21 00:38:49;;;;;;;7.95;2.58;;;;;;;;;;5074261;28;20085;-80
2022/01/21 00:41:21;;;;;;;8.93;2.63;;;;;;;;;;5081786;28;20028;-79
2022/01/21 00:43:46;;;;;;;5.72;2.60;;;;;;;;;;5075538;28;20020;-79
2022/01/21 00:46:12;;;;;;;6.88;2.13;;;;;;;;;;5072772;28;20561;-88
2022/01/21 00:48:38;;;;;;;9.23;2.72;;;;;;;;;;5077094;28;20122;-88
2022/01/21 00:51:03;;;;;;;6.38;2.22;;;;;;;;;;5076940;28;20545;-87
2022/01/21 00:53:28;;;;;;;6.78;2.25;;;;;;;;;;5076546;28;20017;-88
2022/01/21 00:55:54;;;;;;;9.10;2.60;;;;;;;;;;5075691;28;20031;-82
2022/01/21 00:58:19;;;;;;;9.48;2.63;;;;;;;;;;5074947;28;20089;-82
2022/01/21 01:00:45;;;;;;;8.55;2.50;;;;;;;;;;5077087;28;20378;-86
2022/01/21 01:03:12;;;;;;;7.38;2.28;;;;;;;;;;5075129;28;20058;-80
2022/01/21 01:05:38;;;;;;;10.00;2.45;;;;;;;;;;5073644;28;20023;-85
2022/01/21 01:08:03;;;;;;;6.22;2.00;;;;;;;;;;5070946;28;20039;-89
2022/01/21 01:21:17;;;;;;;6.28;2.10;;;;;;;;;;5083942;28;20042;-85
2022/01/21 01:29:10;;;;;;;10.15;2.25;;;;;;;;;;5073442;28;20085;-81
2022/01/21 01:31:36;;;;;;;8.00;2.08;;;;;;;;;;5073243;28;20028;-86
2022/01/21 01:34:02;;;;;;;9.27;1.90;;;;;;;;;;5075296;28;21558;-88
2022/01/21 01:36:28;;;;;;;10.25;2.47;;;;;;;;;;5075234;28;20517;-82
2022/01/21 01:41:39;;;;;;;11.30;2.50;;;;;;;;;;5085319;28;20063;-82
2022/01/21 01:49:37;;;;;;;9.73;2.22;;;;;;;;;;5084627;28;20043;-79
2022/01/21 01:52:14;;;;;;;6.75;2.20;;;;;;;;;;5081802;28;20429;-88
2022/01/21 01:54:54;;;;;;;6.63;1.77;;;;;;;;;;5079102;28;20056;-87
2022/01/21 01:57:21;;;;;;;9.00;2.80;;;;;;;;;;5079646;28;20059;-79
2022/01/21 01:59:46;;;;;;;6.90;1.83;;;;;;;;;;5084208;28;20028;-80
2022/01/21 02:02:15;;;;;;;11.35;2.20;;;;;;;;;;5088371;28;20406;-83
2022/01/21 02:04:42;;;;;;;6.15;1.80;;;;;;;;;;5091759;28;20112;-83
2022/01/21 02:07:08;;;;;;;8.55;1.85;;;;;;;;;;5079689;28;20497;-80
2022/01/21 02:09:34;;;;;;;8.45;1.70;;;;;;;;;;5078850;28;20031;-87
2022/01/21 02:12:00;;;;;;;6.03;1.63;;;;;;;;;;5079150;28;20025;-81
2022/01/21 02:14:33;;;;;;;5.50;1.63;;;;;;;;;;5078081;28;20782;-83
2022/01/21 02:22:15;;;;;;;4.75;1.52;;;;;;;;;;5090123;28;20123;-87
2022/01/21 02:24:53;;;;;;;10.07;1.65;;;;;;;;;;5080830;28;20020;-82
2022/01/21 02:27:19;;;;;;;4.75;1.33;;;;;;;;;;5081820;28;20020;-87
2022/01/21 02:29:50;;;;;;;7.95;1.65;;;;;;;;;;5079015;28;20032;-87
2022/01/21 02:32:17;;;;;;;4.60;1.30;;;;;;;;;;5079520;28;20037;-83
2022/01/21 02:34:44;;;;;;;7.68;1.60;;;;;;;;;;5075060;28;20043;-89
2022/01/21 02:37:11;;;;;;;6.95;1.83;;;;;;;;;;5082301;28;20032;-88
2022/01/21 02:39:36;;;;;;;6.93;1.25;;;;;;;;;;5078897;28;20482;-80
2022/01/21 02:42:02;;;;;;;7.70;1.40;;;;;;;;;;5076351;28;20021;-84
2022/01/21 02:44:27;;;;;;;3.95;1.17;;;;;;;;;;5078967;28;20035;-86
2022/01/21 02:46:57;;;;;;;6.60;1.25;;;;;;;;;;5082265;28;20297;-87
2022/01/21 02:49:23;;;;;;;6.05;1.40;;;;;;;;;;5076776;28;20474;-85
2022/01/21 02:51:49;;;;;;;7.57;1.00;;;;;;;;;;5077442;28;20035;-86
2022/01/21 02:54:14;;;;;;;5.43;1.23;;;;;;;;;;5076155;28;20020;-83
2022/01/21 02:56:40;;;;;;;6.68;1.33;;;;;;;;;;5076083;28;20747;-83
2022/01/21 02:59:07;;;;;;;8.15;1.10;;;;;;;;;;5083994;28;20481;-83
2022/01/21 03:01:35;;;;;;;5.00;1.00;;;;;;;;;;5077413;28;20048;-88
2022/01/21 03:04:06;;;;;;;9.82;1.40;;;;;;;;;;5081228;28;20035;-84
2022/01/21 03:06:33;;;;;;;6.63;1.55;;;;;;;;;;5078558;28;20021;-79
2022/01/21 03:09:00;;;;;;;5.82;0.90;;;;;;;;;;5073425;28;20036;-83
2022/01/21 03:11:27;;;;;;;10.95;1.48;;;;;;;;;;5078111;28;20032;-83
2022/01/21 03:13:53;;;;;;;8.05;1.45;;;;;;;;;;5073843;28;20032;-80
2022/01/21 03:16:19;;;;;;;4.72;0.90;;;;;;;;;;5079347;28;20039;-86
2022/01/21 03:18:45;;;;;;;6.35;1.27;;;;;;;;;;5078287;28;20025;-79
2022/01/21 03:21:16;;;;;;;5.85;1.50;;;;;;;;;;5082384;28;20092;-85
2022/01/21 03:23:46;;;;;;;5.43;1.38;;;;;;;;;;5082956;28;20085;-88
2022/01/21 03:26:16;;;;;;;4.57;1.10;;;;;;;;;;5075322;28;20027;-86
2022/01/21 03:28:42;;;;;;;6.82;1.25;;;;;;;;;;5075534;28;20034;-83
2022/01/21 03:31:08;;;;;;;9.18;1.20;;;;;;;;;;5078456;28;20026;-87
2022/01/21 03:33:33;;;;;;;6.63;1.35;;;;;;;;;;5097939;28;20244;-88
2022/01/21 03:35:58;;;;;;;4.95;1.00;;;;;;;;;;5101038;28;20067;-81
2022/01/21 03:38:26;;;;;;;6.95;0.90;;;;;;;;;;5087516;28;20038;-86
2022/01/21 03:40:52;;;;;;;6.60;0.88;;;;;;;;;;5084752;28;20058;-88
2022/01/21 03:43:19;;;;;;;5.75;1.30;;;;;;;;;;5108329;27;20796;-81
2022/01/21 03:45:44;;;;;;;9.02;1.50;;;;;;;;;;5088179;28;20074;-85
2022/01/21 03:48:10;;;;;;;5.43;1.40;;;;;;;;;;5104716;28;20757;-79
2022/01/21 03:50:35;;;;;;;6.30;1.00;;;;;;;;;;5083437;28;20044;-85
2022/01/21 03:53:02;;;;;;;4.18;0.90;;;;;;;;;;5081318;28;20040;-79
2022/01/21 03:55:28;;;;;;;6.10;1.10;;;;;;;;;;5085211;28;20122;-86
2022/01/21 03:57:53;;;;;;;6.35;1.08;;;;;;;;;;5086370;28;20111;-83
2022/01/21 04:00:21;;;;;;;6.05;1.13;;;;;;;;;;5086728;28;20058;-86
2022/01/21 04:02:47;;;;;;;6.45;1.08;;;;;;;;;;5082495;28;20482;-80
2022/01/21 04:05:12;;;;;;;5.53;1.00;;;;;;;;;;5083529;28;20066;-79
2022/01/21 04:07:38;;;;;;;9.77;1.27;;;;;;;;;;5085950;28;20081;-87
2022/01/21 04:10:05;;;;;;;5.50;0.90;;;;;;;;;;5082845;28;20032;-79
2022/01/21 04:12:30;;;;;;;6.03;1.40;;;;;;;;;;5091328;27;20023;-83
2022/01/21 04:14:58;;;;;;;3.03;1.33;;;;;;;;;;5109197;27;20035;-83
2022/01/21 04:17:23;;;;;;;6.13;1.00;;;;;;;;;;5083641;27;20035;-88
2022/01/21 04:19:48;;;;;;;5.10;1.65;;;;;;;;;;5082245;28;20028;-83
2022/01/21 04:22:14;;;;;;;5.82;1.45;;;;;;;;;;5082166;28;20060;-80
2022/01/21 04:24:40;;;;;;;4.97;1.30;;;;;;;;;;5081387;28;20072;-80
2022/01/21 04:27:05;;;;;;;6.32;1.02;;;;;;;;;;5084692;27;20035;-85
2022/01/21 04:29:31;;;;;;;5.70;1.20;;;;;;;;;;5080208;28;20494;-83
2022/01/21 04:31:56;;;;;;;6.70;1.67;;;;;;;;;;5081415;28;20031;-85
2022/01/21 04:34:21;;;;;;;3.63;1.10;;;;;;;;;;5104734;27;20103;-87
2022/01/21 04:36:47;;;;;;;5.80;1.20;;;;;;;;;;5082951;28;20024;-83
2022/01/21 04:39:19;;;;;;;5.82;1.27;;;;;;;;;;5079411;28;20164;-84
2022/01/21 04:49:38;;;;;;;2.50;0.80;;;;;;;;;;5103458;28;20028;-87
2022/01/21 04:52:03;;;;;;;5.15;1.23;;;;;;;;;;5090294;28;20026;-86
2022/01/21 04:54:35;;;;;;;4.00;1.20;;;;;;;;;;5084551;28;20028;-79
2022/01/21 04:57:02;;;;;;;5.28;0.95;;;;;;;;;;5086082;28;20034;-85
2022/01/21 04:59:27;;;;;;;3.15;0.90;;;;;;;;;;5104655;28;20054;-79
2022/01/21 05:01:53;;;;;;;5.55;1.10;;;;;;;;;;5083786;28;20035;-88
2022/01/21 05:04:20;;;;;;;4.88;1.00;;;;;;;;;;5081864;28;20058;-88
2022/01/21 05:06:47;;;;;;;5.88;1.30;;;;;;;;;;5082882;28;20129;-79
2022/01/21 05:09:15;;;;;;;5.30;1.00;;;;;;;;;;5078187;28;20031;-80
2022/01/21 05:11:41;;;;;;;4.68;0.90;;;;;;;;;;5085523;28;20036;-86
2022/01/21 05:14:22;;;;;;;3.30;0.80;;;;;;;;;;5076586;28;20135;-83
2022/01/21 05:16:50;;;;;;;5.45;1.25;;;;;;;;;;5081272;28;20039;-87
2022/01/21 05:19:18;;;;;;;9.93;1.10;;;;;;;;;;5077153;28;20151;-85
2022/01/21 05:21:49;;;;;;;5.45;1.02;;;;;;;;;;5084457;28;20054;-83
2022/01/21 05:24:16;;;;;;;6.10;1.30;;;;;;;;;;5085895;28;20119;-79
2022/01/21 05:26:52;;;;;;;4.93;1.35;;;;;;;;;;5083098;28;20016;-81
2022/01/21 05:29:19;;;;;;;4.32;1.08;;;;;;;;;;5082183;28;20106;-82
2022/01/21 05:31:44;;;;;;;3.55;1.10;;;;;;;;;;5081098;28;20039;-88
2022/01/21 05:34:10;;;;;;;2.80;0.80;;;;;;;;;;5085146;28;20135;-85
2022/01/21 05:36:37;;;;;;;4.53;1.05;;;;;;;;;;5107135;28;20374;-82
2022/01/21 05:39:03;;;;;;;6.53;1.45;;;;;;;;;;5084157;28;20042;-83
2022/01/21 05:41:29;;;;;;;6.03;1.30;;;;;;;;;;5083393;28;20410;-79
2022/01/21 05:44:01;;;;;;;4.60;1.17;;;;;;;;;;5096122;28;20118;-81
2022/01/21 05:49:14;;;;;;;3.95;1.15;;;;;;;;;;5104554;28;20100;-83
2022/01/21 05:51:40;;;;;;;3.03;0.85;;;;;;;;;;5098509;28;20024;-88
2022/01/21 05:54:05;;;;;;;3.83;1.30;;;;;;;;;;5087724;28;20023;-82
2022/01/21 05:56:31;;;;;;;7.82;1.30;;;;;;;;;;5081569;28;20390;-88
2022/01/21 05:58:56;;;;;;;3.85;1.45;;;;;;;;;;5082620;28;20028;-83
2022/01/21 06:01:22;;;;;;;3.05;1.30;;;;;;;;;;5077200;28;20458;-88
2022/01/21 06:03:49;;;;;;;4.78;1.20;;;;;;;;;;5098269;28;20059;-80
2022/01/21 06:06:14;;;;;;;5.25;1.52;;;;;;;;;;5080498;28;20024;-80
2022/01/21 06:08:40;;;;;;;5.30;1.13;;;;;;;;;;5078465;28;20078;-86
2022/01/21 06:11:05;;;;;;;3.67;1.23;;;;;;;;;;5102259;28;20107;-89
2022/01/21 06:13:31;;;;;;;4.28;1.30;;;;;;;;;;5085776;28;21712;-85
2022/01/21 06:15:58;;;;;;;3.88;1.13;;;;;;;;;;5095700;28;20470;-86
2022/01/21 06:18:24;;;;;;;5.63;1.13;;;;;;;;;;5082263;28;20038;-83
2022/01/21 06:20:49;;;;;;;3.70;1.20;;;;;;;;;;5098139;28;20482;-86
2022/01/21 06:23:15;;;;;;;3.90;1.27;;;;;;;;;;5077964;28;20036;-87
2022/01/21 06:25:41;;;;;;;8.65;1.40;;;;;;;;;;5084599;28;20055;-87
2022/01/21 06:28:08;;;;;;;3.17;1.10;;;;;;;;;;5095025;28;20114;-80
2022/01/21 06:30:34;;;;;;;4.43;1.40;;;;;;;;;;5103273;28;20039;-86
2022/01/21 06:33:00;;;;;;;3.63;1.17;;;;;;;;;;5086069;28;20071;-85
2022/01/21 06:35:25;;;;;;;6.00;1.70;;;;;;;;;;5091558;27;20433;-80
2022/01/21 06:37:51;;;;;;;6.88;2.42;;;;;;;;;;5097928;27;20042;-89
2022/01/21 06:40:19;;;;;;;5.60;1.60;;;;;;;;;;5107553;28;20498;-82
2022/01/21 06:42:49;;;;;;;3.78;1.17;;;;;;;;;;5106073;28;20099;-79
2022/01/21 06:45:14;;;;;;;4.18;1.30;;;;;;;;;;5081478;28;20043;-88
2022/01/21 06:47:40;;;;;;;6.40;1.70;;;;;;;;;;5097852;28;20039;-85
2022/01/21 06:50:06;;;;;;;4.10;1.33;;;;;;;;;;5084450;28;20027;-89
2022/01/21 06:52:32;;;;;;;4.25;1.60;;;;;;;;;;5085320;28;21086;-89
2022/01/21 06:54:58;;;;;;;6.28;1.73;;;;;;;;;;5078410;28;20031;-86
2022/01/21 06:57:24;;;;;;;5.18;1.83;;;;;;;;;;5079779;28;20052;-85
2022/01/21 06:59:50;;;;;;;5.60;1.85;;;;;;;;;;5076428;28;20059;-82
2022/01/21 07:02:18;;;;;;;3.75;1.52;;;;;;;;;;5083630;28;20400;-87
2022/01/21 07:04:43;;;;;;;6.07;1.60;;;;;;;;;;5091412;28;20038;-80
2022/01/21 07:07:08;;;;;;;5.05;1.90;;;;;;;;;;5095945;28;20028;-86
2022/01/21 07:09:35;;;;;;;7.32;2.75;;;;;;;;;;5080427;28;20036;-79
2022/01/21 07:12:00;;;;;;;7.45;3.00;;;;;;;;;;5085535;28;20043;-81
2022/01/21 07:14:26;;;;;;;6.65;2.67;;;;;;;;;;5081880;28;20016;-86
2022/01/21 07:16:55;;;;;;;7.15;2.33;;;;;;;;;;5104240;28;20020;-82
2022/01/21 07:19:20;;;;;;;4.95;2.00;;;;;;;;;;5090154;28;20148;-88
2022/01/21 07:21:45;;;;;;;8.18;3.00;;;;;;;;;;5091960;28;20106;-80
2022/01/21 07:24:11;;;;;;;6.43;2.65;;;;;;;;;;5081311;28;20047;-88
2022/01/21 07:26:39;;;;;;;5.90;2.63;;;;;;;;;;5098807;28;20157;-82
2022/01/21 07:29:05;;;;;;;7.68;2.20;;;;;;;;;;5086695;28;20032;-83
2022/01/21 07:31:31;;;;;;;7.75;2.20;;;;;;;;;;5082787;28;20028;-87
2022/01/21 07:33:58;;;;;;;8.82;2.20;;;;;;;;;;5090995;28;20047;-86
2022/01/21 07:36:25;;;;;;;6.18;2.03;;;;;;;;;;5092697;28;20447;-82
2022/01/21 07:38:50;;;;;;;8.88;2.20;;;;;;;;;;5096794;28;20047;-82
2022/01/21 07:41:15;;;;;;;6.15;1.88;;;;;;;;;;5081784;28;20028;-89
2022/01/21 07:43:41;;;;;;;6.65;1.85;;;;;;;;;;5084804;28;20059;-86
2022/01/21 07:46:06;;;;;;;6.15;2.08;;;;;;;;;;5098398;28;20020;-83
2022/01/21 07:48:31;;;;;;;6.05;2.30;;;;;;;;;;5078271;28;20478;-85
2022/01/21 07:50:57;;;;;;;4.75;2.63;;;;;;;;;;5100885;28;20501;-80
2022/01/21 07:53:24;;;;;;;8.02;3.00;;;;;;;;;;5110057;28;20024;-86
2022/01/21 07:55:51;;;;;;;4.28;2.42;;;;;;;;;;5085982;28;20036;-81
2022/01/21 07:58:18;;;;;;;7.20;2.58;;;;;;;;;;5090605;28;20047;-85
2022/01/21 08:00:43;;;;;;;8.88;2.60;;;;;;;;;;5095863;28;20102;-80
2022/01/21 08:03:09;;;;;;;6.65;2.60;;;;;;;;;;5090299;28;20166;-88
2022/01/21 08:05:35;;;;;;;11.20;2.80;;;;;;;;;;5087181;28;20023;-86
2022/01/21 08:08:01;;;;;;;4.25;2.38;;;;;;;;;;5090741;28;20034;-79
2022/01/21 08:10:27;;;;;;;6.90;2.25;;;;;;;;;;5094189;28;20100;-88
2022/01/21 08:12:53;;;;;;;5.32;2.40;;;;;;;;;;5087232;28;20092;-82
2022/01/21 08:15:18;;;;;;;4.68;2.00;;;;;;;;;;5085959;28;20035;-83
2022/01/21 08:17:44;;;;;;;5.75;1.85;;;;;;;;;;5084973;28;20051;-82
2022/01/21 08:20:10;;;;;;;7.18;2.40;;;;;;;;;;5084094;28;20023;-83
2022/01/21 08:22:35;;;;;;;7.35;2.80;;;;;;;;;;5099203;28;20042;-83
2022/01/21 08:25:01;;;;;;;6.45;2.38;;;;;;;;;;5084403;28;20500;-79
2022/01/21 08:27:26;;;;;;;7.20;2.00;;;;;;;;;;5081933;28;20370;-87
2022/01/21 08:29:51;;;;;;;5.90;2.53;;;;;;;;;;5089346;28;20062;-83
2022/01/21 08:32:17;;;;;;;7.13;2.20;;;;;;;;;;5087109;28;20101;-86
2022/01/21 08:34:43;;;;;;;5.90;2.40;;;;;;;;;;5084771;28;20020;-86
2022/01/21 08:37:08;;;;;;;5.20;2.13;;;;;;;;;;5103701;28;20023;-88
2022/01/21 08:39:34;;;;;;;4.88;1.95;;;;;;;;;;5080354;28;20016;-86
2022/01/21 08:42:00;;;;;;;5.47;2.17;;;;;;;;;;5081303;28;20043;-84
2022/01/21 08:44:25;;;;;;;6.68;2.03;;;;;;;;;;5088244;28;20027;-80
2022/01/21 08:46:50;;;;;;;6.28;1.90;;;;;;;;;;5078144;28;20489;-82
2022/01/21 08:49:19;;;;;;;3.90;1.75;;;;;;;;;;5076901;28;20113;-87
2022/01/21 08:51:51;;;;;;;7.28;2.05;;;;;;;;;;5077962;28;20024;-81
2022/01/21 08:54:18;;;;;;;5.93;2.07;;;;;;;;;;5076700;28;20870;-86
2022/01/21 08:56:45;;;;;;;8.77;2.05;;;;;;;;;;5080287;28;20024;-84
2022/01/21 08:59:11;;;;;;;4.43;1.95;;;;;;;;;;5081755;28;20027;-83
2022/01/21 09:01:36;;;;;;;8.10;1.95;;;;;;;;;;5083142;28;20036;-84
2022/01/21 09:04:02;;;;;;;8.75;2.30;;;;;;;;;;5079639;28;20042;-83
2022/01/21 09:06:29;;;;;;;5.47;2.17;;;;;;;;;;5079464;28;20020;-82
2022/01/21 09:08:56;;;;;;;6.90;2.22;;;;;;;;;;5080045;28;20062;-83
2022/01/21 09:11:21;;;;;;;10.68;2.30;;;;;;;;;;5078553;28;20055;-85
2022/01/21 09:13:47;;;;;;;5.75;2.40;;;;;;;;;;5084856;28;20062;-86
2022/01/21 09:16:12;;;;;;;8.50;2.50;;;;;;;;;;5074015;28;20474;-84
2022/01/21 09:18:56;;;;;;;7.50;2.03;;;;;;;;;;5081110;28;20046;-83
2022/01/21 09:21:25;;;;;;;7.85;2.20;;;;;;;;;;5082422;28;20023;-83
2022/01/21 09:23:51;;;;;;;8.38;2.28;;;;;;;;;;5081470;28;20565;-87
2022/01/21 09:26:18;;;;;;;8.93;2.05;;;;;;;;;;5082740;28;20024;-86
2022/01/21 09:28:43;;;;;;;5.72;1.85;;;;;;;;;;5077482;28;20398;-84
2022/01/21 09:31:09;;;;;;;5.90;1.70;;;;;;;;;;5073537;28;20024;-81
2022/01/21 09:33:35;;;;;;;6.78;1.98;;;;;;;;;;5095002;28;20058;-84
2022/01/21 09:36:00;;;;;;;5.95;2.00;;;;;;;;;;5082040;28;20108;-84
2022/01/21 09:38:26;;;;;;;10.63;1.70;;;;;;;;;;5097564;28;20674;-84
2022/01/21 09:40:52;;;;;;;6.45;1.75;;;;;;;;;;5097496;28;20067;-81
2022/01/21 09:43:19;;;;;;;8.25;1.90;;;;;;;;;;5075291;28;20055;-81
2022/01/21 09:45:47;;;;;;;7.03;1.98;;;;;;;;;;5079220;28;20470;-84
2022/01/21 09:48:20;;;;;;;4.82;1.83;;;;;;;;;;5092965;28;20081;-82
2022/01/21 09:50:46;;;;;;;6.72;2.20;;;;;;;;;;5080744;28;20069;-84
2022/01/21 09:53:12;;;;;;;6.00;1.80;;;;;;;;;;5084202;27;20039;-85
2022/01/21 09:55:38;;;;;;;4.13;1.98;;;;;;;;;;5084700;28;20031;-84
2022/01/21 09:58:04;;;;;;;6.65;1.95;;;;;;;;;;5084739;28;20092;-85
2022/01/21 10:00:29;;;;;;;9.82;2.85;;;;;;;;;;5097975;28;20132;-85
2022/01/21 10:02:57;;;;;;;8.90;2.10;;;;;;;;;;5087799;28;20489;-84
2022/01/21 10:05:22;;;;;;;11.90;2.35;;;;;;;;;;5104690;28;20023;-84
2022/01/21 10:07:49;;;;;;;12.30;2.33;;;;;;;;;;5085044;28;20020;-85
2022/01/21 10:10:16;;;;;;;9.20;2.65;;;;;;;;;;5077998;28;20028;-85
2022/01/21 10:12:44;;;;;;;9.70;2.40;;;;;;;;;;5082587;28;20750;-81
2022/01/21 10:15:11;;;;;;;11.95;2.50;;;;;;;;;;5095731;28;20032;-82
2022/01/21 10:17:37;;;;;;;8.52;2.58;;;;;;;;;;5082716;28;20032;-84
2022/01/21 10:20:18;;;;;;;10.98;2.80;;;;;;;;;;5095120;28;20047;-85
2022/01/21 10:23:09;;;;;;;14.68;2.72;;;;;;;;;;5077419;28;20043;-84
2022/01/21 10:25:37;;;;;;;9.57;2.67;;;;;;;;;;5085782;28;20031;-81
2022/01/21 10:28:17;;;;;;;10.57;3.00;;;;;;;;;;5083506;28;20397;-86
2022/01/21 10:30:43;;;;;;;12.82;2.85;;;;;;;;;;5081188;28;20630;-84
2022/01/21 10:33:24;;;;;;;6.95;2.50;;;;;;;;;;5073047;28;20109;-85
2022/01/21 10:36:04;;;;;;;7.20;2.17;;;;;;;;;;5069278;28;20032;-84
2022/01/21 10:38:31;;;;;;;10.48;2.08;;;;;;;;;;5079047;28;20024;-84
2022/01/21 10:41:08;;;;;;;6.47;2.40;;;;;;;;;;5070105;28;20585;-82
2022/01/21 10:43:34;;;;;;;9.13;2.40;;;;;;;;;;5071754;28;20039;-81
2022/01/21 10:46:00;;;;;;;9.90;1.80;;;;;;;;;;5068730;28;20135;-85
2022/01/21 10:48:31;;;;;;;6.85;2.45;;;;;;;;;;5072867;28;20163;-85
2022/01/21 10:51:20;;;;;;;8.82;2.28;;;;;;;;;;5082541;28;20389;-85
2022/01/21 10:53:46;;;;;;;6.60;2.03;;;;;;;;;;5075886;28;20032;-86
2022/01/21 10:56:16;;;;;;;7.70;1.85;;;;;;;;;;5075347;28;20029;-85
2022/01/21 10:58:47;;;;;;;6.97;2.00;;;;;;;;;;5081158;28;20905;-84
2022/01/21 11:01:17;;;;;;;8.50;1.85;;;;;;;;;;5077299;28;20028;-82
2022/01/21 11:04:05;;;;;;;8.77;1.83;;;;;;;;;;5073713;28;20028;-85
2022/01/21 11:06:44;;;;;;;13.88;2.70;;;;;;;;;;5070958;28;20016;-85
2022/01/21 11:09:15;;;;;;;8.88;2.53;;;;;;;;;;5071685;28;20489;-83
2022/01/21 11:11:41;;;;;;;9.85;2.40;;;;;;;;;;5076125;28;20024;-82
2022/01/21 11:14:19;;;;;;;7.80;2.33;;;;;;;;;;5073043;28;20062;-86
2022/01/21 11:16:47;;;;;;;7.88;1.83;;;;;;;;;;5078034;28;20418;-85
2022/01/21 11:19:25;;;;;;;7.90;2.03;;;;;;;;;;5071763;28;20501;-87
2022/01/21 11:21:54;;;;;;;7.70;1.98;;;;;;;;;;5078582;28;20081;-86
2022/01/21 11:24:22;;;;;;;11.13;2.25;;;;;;;;;;5074557;28;20569;-85
2022/01/21 11:27:13;;;;;;;10.50;2.10;;;;;;;;;;5078147;28;20035;-85
2022/01/21 11:29:40;;;;;;;9.02;2.30;;;;;;;;;;5074122;28;20035;-85
2022/01/21 11:32:06;;;;;;;7.00;1.85;;;;;;;;;;5081004;28;20036;-87
2022/01/21 11:34:33;;;;;;;9.73;2.10;;;;;;;;;;5080247;28;20375;-85
2022/01/21 11:36:58;;;;;;;8.98;2.20;;;;;;;;;;5082118;28;20028;-85
2022/01/21 11:39:24;;;;;;;9.95;2.35;;;;;;;;;;5076971;28;20391;-85
2022/01/21 11:41:53;;;;;;;8.05;2.28;;;;;;;;;;5082886;28;20051;-87
2022/01/21 11:44:21;;;;;;;12.43;2.53;;;;;;;;;;5075744;28;20039;-81
2022/01/21 11:49:33;;;;;;;10.32;2.45;;;;;;;;;;5099884;28;20159;-87
2022/01/21 11:52:18;;;;;;;10.07;2.33;;;;;;;;;;5077365;28;20087;-85
2022/01/21 11:54:45;;;;;;;8.30;2.28;;;;;;;;;;5084895;28;20533;-85
2022/01/21 11:57:12;;;;;;;11.55;2.22;;;;;;;;;;5079351;28;20036;-83
2022/01/21 12:00:00;;;;;;;10.60;2.65;;;;;;;;;;5099089;28;20545;-85
2022/01/21 12:02:31;;;;;;;8.15;2.33;;;;;;;;;;5075109;28;20547;-85
2022/01/21 12:05:08;;;;;;;8.57;2.72;;;;;;;;;;5080265;28;20511;-86
2022/01/21 12:07:40;;;;;;;17.17;3.10;;;;;;;;;;5077031;28;20032;-87
2022/01/21 12:10:13;;;;;;;11.05;2.33;;;;;;;;;;5081859;28;20454;-86
2022/01/21 12:12:56;;;;;;;9.88;2.13;;;;;;;;;;5078042;28;20023;-87
2022/01/21 12:20:49;;;;;;;7.85;1.77;;;;;;;;;;5092083;28;20024;-82
2022/01/21 12:23:22;;;;;;;8.93;1.60;;;;;;;;;;5080409;28;20027;-85
2022/01/21 12:26:19;;;;;;;8.55;1.83;;;;;;;;;;5084257;28;20023;-85
2022/01/21 12:28:47;;;;;;;7.32;1.65;;;;;;;;;;5079316;28;20125;-85
2022/01/21 12:31:15;;;;;;;4.78;1.50;;;;;;;;;;5077846;28;20055;-86
2022/01/21 12:33:55;;;;;;;9.45;1.40;;;;;;;;;;5075594;28;20044;-84
2022/01/21 12:36:28;;;;;;;7.00;1.63;;;;;;;;;;5081295;28;20035;-85
2022/01/21 12:41:22;;;;;;;9.98;1.67;;;;;;;;;;5101937;28;20028;-83
2022/01/21 12:43:50;;;;;;;11.35;2.08;;;;;;;;;;5084532;28;20024;-85
2022/01/21 12:46:18;;;;;;;12.25;1.88;;;;;;;;;;5084250;28;20080;-84
2022/01/21 12:48:46;;;;;;;6.38;1.83;;;;;;;;;;5077528;28;20028;-85
2022/01/21 12:51:21;;;;;;;14.05;2.22;;;;;;;;;;5074921;28;20474;-85
2022/01/21 12:56:57;;;;;;;8.82;1.77;;;;;;;;;;5098296;28;20123;-84
2022/01/21 12:59:29;;;;;;;9.98;1.33;;;;;;;;;;5080902;28;20599;-85
2022/01/21 13:01:59;;;;;;;6.50;1.38;;;;;;;;;;5082744;28;20075;-87
2022/01/21 13:04:43;;;;;;;10.10;1.58;;;;;;;;;;5082798;28;20030;-87
2022/01/21 13:07:18;;;;;;;8.82;1.75;;;;;;;;;;5075652;28;20027;-82
2022/01/21 13:10:06;;;;;;;8.93;1.65;;;;;;;;;;5079167;28;20032;-87
2022/01/21 13:13:00;;;;;;;10.52;1.50;;;;;;;;;;5071908;28;20026;-86
2022/01/21 13:15:39;;;;;;;12.07;1.52;;;;;;;;;;5080063;28;20028;-84
2022/01/21 13:18:14;;;;;;;10.10;1.40;;;;;;;;;;5080842;28;20027;-85
2022/01/21 13:20:43;;;;;;;15.07;1.50;;;;;;;;;;5080999;28;20039;-85
2022/01/21 13:23:09;;;;;;;9.70;1.42;;;;;;;;;;5075872;28;20036;-84
2022/01/21 13:25:36;;;;;;;5.78;1.30;;;;;;;;;;5100764;28;20046;-86
2022/01/21 13:28:04;;;;;;;9.75;1.50;;;;;;;;;;5090014;28;20046;-85
2022/01/21 13:30:33;;;;;;;9.65;2.00;;;;;;;;;;5067182;28;20682;-85
2022/01/21 13:32:58;;;;;;;8.82;1.30;;;;;;;;;;5083520;28;20056;-87
2022/01/21 13:35:25;;;;;;;5.32;1.13;;;;;;;;;;5076212;28;20664;-86
2022/01/21 13:38:12;;;;;;;7.03;1.13;;;;;;;;;;5076011;28;20090;-84
2022/01/21 13:40:48;;;;;;;7.85;1.85;;;;;;;;;;5077855;28;20024;-84
2022/01/21 13:43:16;;;;;;;8.45;1.15;;;;;;;;;;5072629;28;20448;-86
2022/01/21 13:45:53;;;;;;;8.27;1.48;;;;;;;;;;5073616;28;20107;-87
2022/01/21 13:48:19;;;;;;;8.18;1.38;;;;;;;;;;5080076;28;20058;-84
2022/01/21 13:50:46;;;;;;;7.47;1.20;;;;;;;;;;5076526;28;20027;-85
2022/01/21 13:53:12;;;;;;;14.43;1.55;;;;;;;;;;5069002;28;20115;-86
2022/01/21 13:55:43;;;;;;;9.40;1.42;;;;;;;;;;5072037;28;20122;-87
2022/01/21 13:58:24;;;;;;;8.57;1.77;;;;;;;;;;5075580;28;20032;-86
2022/01/21 14:00:56;;;;;;;7.78;1.50;;;;;;;;;;5074241;28;20034;-84
2022/01/21 14:03:31;;;;;;;11.35;1.80;;;;;;;;;;5076314;28;20497;-86
2022/01/21 14:05:59;;;;;;;9.32;1.60;;;;;;;;;;5071150;28;20079;-81
2022/01/21 14:08:36;;;;;;;11.57;1.67;;;;;;;;;;5078756;28;20482;-85
2022/01/21 14:11:17;;;;;;;12.20;1.65;;;;;;;;;;5081685;28;20498;-82
2022/01/21 14:13:46;;;;;;;7.90;1.45;;;;;;;;;;5078648;28;20028;-87
2022/01/21 14:16:36;;;;;;;8.32;1.73;;;;;;;;;;5078316;28;20028;-86
2022/01/21 14:19:04;;;;;;;9.40;1.67;;;;;;;;;;5077035;28;20036;-87
2022/01/21 14:21:32;;;;;;;10.70;2.20;;;;;;;;;;5074317;28;20036;-86
2022/01/21 14:24:11;;;;;;;8.10;1.70;;;;;;;;;;5081359;28;20028;-85
2022/01/21 14:26:40;;;;;;;12.20;1.90;;;;;;;;;;5075098;28;20057;-85
2022/01/21 14:29:06;;;;;;;7.82;1.60;;;;;;;;;;5076481;28;20036;-86
2022/01/21 14:31:41;;;;;;;7.38;1.30;;;;;;;;;;5074454;28;20494;-85
2022/01/21 14:34:12;;;;;;;13.63;1.70;;;;;;;;;;5079488;28;20133;-85
2022/01/21 14:36:46;;;;;;;7.05;1.60;;;;;;;;;;5091016;28;20039;-85
2022/01/21 14:39:21;;;;;;;5.82;1.88;;;;;;;;;;5080087;28;20027;-85
2022/01/21 14:41:54;;;;;;;6.07;1.38;;;;;;;;;;5083459;28;20024;-86
2022/01/21 14:44:50;;;;;;;8.35;1.80;;;;;;;;;;5077316;28;20024;-86
2022/01/21 14:47:31;;;;;;;;;;;;;;;;;;;;;
2022/01/21 14:50:13;;;;;;;;;;;;;;;;;;;;;
2022/01/21 14:52:54;;;;;;;9.45;1.98;;;;;;;;;;5075257;28;20365;-85
2022/01/21 14:55:45;;;;;;;10.80;2.22;;;;;;;;;;5082790;28;20032;-83
2022/01/21 14:58:22;;;;;;;8.13;2.17;;;;;;;;;;5082197;28;20036;-88
2022/01/21 15:01:11;;;;;;;9.15;2.08;;;;;;;;;;5076967;28;20055;-81
2022/01/21 15:03:54;;;;;;;9.23;1.63;;;;;;;;;;5079489;28;20101;-87
2022/01/21 15:06:22;;;;;;;8.57;1.60;;;;;;;;;;5077918;28;20024;-85
2022/01/21 15:08:58;;;;;;;9.40;2.40;;;;;;;;;;5076075;28;20107;-85
2022/01/21 15:14:44;;;;;;;;;;;;;;;;;;;;;
2022/01/21 15:17:22;;;;;;;13.48;2.15;;;;;;;;;;5088407;28;20034;-85
2022/01/21 15:19:54;;;;;;;10.82;1.95;;;;;;;;;;5079918;28;20412;-85
2022/01/21 15:22:25;;;;;;;12.40;1.92;;;;;;;;;;5085510;28;20024;-85
2022/01/21 15:24:56;;;;;;;8.75;2.00;;;;;;;;;;5077302;28;20060;-88
2022/01/21 15:27:23;;;;;;;12.70;2.20;;;;;;;;;;5077890;28;20040;-88
2022/01/21 15:29:55;;;;;;;9.00;2.10;;;;;;;;;;5081757;28;20032;-86
2022/01/21 15:32:25;;;;;;;9.23;1.63;;;;;;;;;;5082794;28;20445;-88
2022/01/21 15:35:02;;;;;;;11.30;2.00;;;;;;;;;;5085447;28;20395;-86
2022/01/21 15:37:27;;;;;;;9.20;2.00;;;;;;;;;;5083247;28;20028;-81
2022/01/21 15:39:55;;;;;;;10.00;2.08;;;;;;;;;;5081282;28;20394;-81
2022/01/21 15:42:21;;;;;;;8.88;2.22;;;;;;;;;;5085532;28;20037;-88
2022/01/21 15:44:57;;;;;;;7.10;2.00;;;;;;;;;;5083532;28;20034;-86
2022/01/21 15:47:28;;;;;;;8.20;2.00;;;;;;;;;;5076614;28;20095;-83
2022/01/21 15:49:58;;;;;;;7.35;1.98;;;;;;;;;;5083272;28;20034;-86
2022/01/21 15:52:24;;;;;;;7.00;1.83;;;;;;;;;;5079987;28;20421;-86
2022/01/21 15:54:55;;;;;;;12.30;2.15;;;;;;;;;;5079405;28;20093;-86
2022/01/21 15:57:24;;;;;;;9.38;2.10;;;;;;;;;;5080643;28;20111;-88
2022/01/21 15:59:52;;;;;;;9.80;2.03;;;;;;;;;;5082086;28;20434;-85
2022/01/21 16:02:28;;;;;;;13.80;2.58;;;;;;;;;;5084343;28;20020;-81